x

Lake St Clair (45147) Weather Station

1:00pm - Wed 23rd Aug 2017 All times are CDT. -5 hours from GMT.

  • Wind
    13mph, 16mph gusts
  • Sea Temp 73°f
  • Air Temp 70°f
  • Sea Pressure 1013.4mb
  • Lake St Clair
  • Lake St Clair

More Historic Weather Station data

Upgrade to MSW Pro to gain access to the past 30 days of data for over 8000 Wavebouys and Weather Stations around the globe.

Join

Comparision Forecast

View Surf forecast
   
Wed 08/23 1:00pm 13 16 mph 1013.4mb 73f 70f
12:00pm 13
mph
1013.5mb - 69f
11:00am 16 18 mph 1013.3mb 73f 69f
10:00am 13 18 mph 1013.2mb 73f 68f
9:00am 9 11 mph 1013.2mb 73f 66f
8:00am 13 18 mph 1013.1mb 73f 65f
7:00am 13 16 mph 1012.9mb 73f 65f
6:00am 16 20 mph 1012.4mb 73f 65f
5:00am 16 20 mph 1012.1mb 73f 65f
4:00am 16 18 mph 1012mb 73f 66f
3:00am 13 16 mph 1011.9mb 73f 67f
2:00am 16 18 mph 1011.9mb 73f 67f
1:00am 18 20 mph 1011.7mb 73f 69f
Tue 08/22 8:00am 18 22 mph 1008.5mb 73f 75f
7:00am 16 20 mph 1008.9mb 73f 74f
6:00am 18 25 mph 1009.2mb 73f 75f
5:00am 18 20 mph 1009.7mb 73f 75f
4:00am 18 20 mph 1009.8mb 73f 74f
3:00am 18 20 mph 1010.6mb 73f 75f
2:00am 16 18 mph 1011.3mb 73f 75f
1:00am 13 16 mph 1012mb 73f 76f
12:00am 11 13 mph 1013.4mb 74f 76f
Mon 08/21 11:00pm 9 13 mph 1013.8mb 74f 76f
10:00pm 11 13 mph 1013.6mb 74f 76f
9:00pm 11 11 mph 1014.7mb 74f 76f
8:00pm 9 11 mph 1015mb 74f 76f
7:00pm 9 9 mph 1015.3mb 74f 77f
6:00pm 13 18 mph 1014.9mb 75f 79f
5:00pm 4 7 mph 1015.8mb 75f 77f
4:00pm 4 7 mph 1016.4mb 75f 77f
3:00pm 7 9 mph 1016.8mb 75f 78f
2:00pm 9 11 mph 1017.2mb 75f 79f
1:00pm 4 4 mph 1017.7mb 76f 77f
12:00pm 4 7 mph 1018mb 75f 77f
11:00am 4 4 mph 1018.4mb 74f 75f
10:00am 2 4 mph 1018.8mb 73f 75f
9:00am 4 7 mph 1018.6mb 73f 74f
8:00am  -  2 mph 1019mb 73f 74f
7:00am 2 4 mph 1019.2mb 73f 73f
6:00am 2 2 mph 1018.7mb 73f 72f
5:00am  -  0 mph 1018mb 73f 72f
4:00am 2 4 mph 1018.1mb 73f 73f
3:00am 7 7 mph 1018.2mb 73f 73f
2:00am 9 9 mph 1018mb 73f 74f
1:00am 9 9 mph 1017.8mb 73f 74f
12:00am 11 13 mph 1018.1mb 73f 74f
Sun 08/20 11:00pm 11 11 mph 1018.1mb 73f 74f
10:00pm 11 13 mph 1018mb 74f 74f
9:00pm 11 13 mph 1017.9mb 74f 74f
8:00pm 11 13 mph 1017.8mb 74f 75f
7:00pm 7 7 mph 1017.4mb 74f 76f
6:00pm 7 9 mph 1017mb 74f 77f
5:00pm 9 9 mph 1017.2mb 75f 78f
1:00am 9 11 mph 1015.8mb 73f 72f
12:00am 9 9 mph 1015.6mb 73f 73f
Sat 08/19 11:00pm 9 9 mph 1015mb 73f 73f
10:00pm 9 11 mph 1014.6mb 73f 73f
9:00pm 2 2 mph 1014.1mb 73f 73f
8:00pm 2 4 mph 1013.7mb 73f 74f